LIRA/CIA METAR and TAF weather

Enter ICAO airport designator
Station Type Date Time Source
LIRA METAR 2022/06/29 23:50 UTC NOAA

LIRA 292350Z 21004KT CAVOK 22/20 Q1013


Station Type Date Time Source
LIRA Decoded METAR 2022/06/29 23:50 UTC NOAA

Roma / Ciampino, Italy (LIRA) 41-47N 012-35E 105M
Jun 29, 2022 - 07:50 PM EDT / 2022.06.29 2350 UTC
Wind: from the SSW (210 degrees) at 5 MPH (4 KT):0
Visibility: greater than 7 mile(s):0
Temperature: 71 F (22 C)
Dew Point: 68 F (20 C)
Relative Humidity: 88%
Pressure (altimeter): 29.91 in. Hg (1013 hPa)
ob: LIRA 292350Z 21004KT CAVOK 22/20 Q1013
cycle: 0

Station Type Date Time Source
LIRA TAF 2022/06/29 18:21 UTC NOAA

TAF LIRA 291700Z 2918/3018 29010KT 9999 FEW030
BECMG 2918/2920 VRB05KT
BECMG 3009/3011 25012KT

Example: see airport list